<?xml version="1.0" encoding="UTF-8" standalone="no" ?>
<gpx xmlns="http://www.topografix.com/GPX/1/1" xmlns:xsi="http://www.w3.org/2001/XMLSchema-instance" xsi:schemaLocation="http://www.topografix.com/GPX/1/1 http://www.topografix.com/GPX/1/1/gpx.xsd" version="1.1" creator="VisuGPX - https://www.visugpx.com">
  <metadata>
    <name>1.CheminPetitesBruyeres-Fuisse_RocheSolutre</name>
  </metadata>
  <trk>
    <name><![CDATA[Domaine Vincent Cornin - Roche de la Solutré-19004247]]></name>
    <extensions>
      <line xmlns="http://www.topografix.com/GPX/gpx_style/0/2">
        <color>0000FF</color>
        <width>4</width>
      </line>
    </extensions>
    <trkseg>
      <trkpt lat="46.2664" lon="4.75446">
        <ele>272</ele>
        <time>2024-05-16T15:45:29.000Z</time>
      </trkpt>
      <trkpt lat="46.26742" lon="4.7515">
        <ele>272</ele>
        <time>2024-05-16T15:46:22.000Z</time>
      </trkpt>
      <trkpt lat="46.27297" lon="4.74438">
        <ele>353</ele>
        <time>2024-05-16T15:49:16.000Z</time>
      </trkpt>
      <trkpt lat="46.27427" lon="4.73047">
        <ele>382</ele>
        <time>2024-05-16T15:53:02.000Z</time>
      </trkpt>
      <trkpt lat="46.27568" lon="4.72985">
        <ele>387</ele>
        <time>2024-05-16T15:53:37.000Z</time>
      </trkpt>
      <trkpt lat="46.27614" lon="4.72927">
        <ele>385</ele>
        <time>2024-05-16T15:53:51.000Z</time>
      </trkpt>
      <trkpt lat="46.27676" lon="4.72972">
        <ele>387</ele>
        <time>2024-05-16T15:54:07.000Z</time>
      </trkpt>
      <trkpt lat="46.27798" lon="4.72996">
        <ele>387</ele>
        <time>2024-05-16T15:54:36.000Z</time>
      </trkpt>
      <trkpt lat="46.27977" lon="4.72974">
        <ele>387</ele>
        <time>2024-05-16T15:55:18.000Z</time>
      </trkpt>
      <trkpt lat="46.28029" lon="4.72846">
        <ele>389</ele>
        <time>2024-05-16T15:55:42.000Z</time>
      </trkpt>
      <trkpt lat="46.28222" lon="4.72286">
        <ele>388</ele>
        <time>2024-05-16T15:57:23.000Z</time>
      </trkpt>
      <trkpt lat="46.28289" lon="4.71981">
        <ele>373</ele>
        <time>2024-05-16T15:58:14.000Z</time>
      </trkpt>
      <trkpt lat="46.29001" lon="4.71532">
        <ele>405</ele>
        <time>2024-05-16T16:01:16.000Z</time>
      </trkpt>
      <trkpt lat="46.29027" lon="4.7147">
        <ele>407</ele>
        <time>2024-05-16T16:01:27.000Z</time>
      </trkpt>
      <trkpt lat="46.29103" lon="4.71361">
        <ele>409</ele>
        <time>2024-05-16T16:01:52.000Z</time>
      </trkpt>
      <trkpt lat="46.29515" lon="4.71451">
        <ele>386</ele>
        <time>2024-05-16T16:03:30.000Z</time>
      </trkpt>
      <trkpt lat="46.29607" lon="4.71204">
        <ele>405</ele>
        <time>2024-05-16T16:04:15.000Z</time>
      </trkpt>
      <trkpt lat="46.29604" lon="4.71202">
        <ele>405</ele>
        <time>2024-05-16T16:04:16.000Z</time>
      </trkpt>
      <trkpt lat="46.29601" lon="4.71215">
        <ele>405</ele>
        <time>2024-05-16T16:04:18.000Z</time>
      </trkpt>
      <trkpt lat="46.29603" lon="4.71223">
        <ele>404</ele>
        <time>2024-05-16T16:04:19.000Z</time>
      </trkpt>
      <trkpt lat="46.29595" lon="4.71236">
        <ele>404</ele>
        <time>2024-05-16T16:04:22.000Z</time>
      </trkpt>
      <trkpt lat="46.29591" lon="4.71253">
        <ele>403</ele>
        <time>2024-05-16T16:04:25.000Z</time>
      </trkpt>
      <trkpt lat="46.2959" lon="4.7126">
        <ele>403</ele>
        <time>2024-05-16T16:04:26.000Z</time>
      </trkpt>
      <trkpt lat="46.29594" lon="4.71297">
        <ele>400</ele>
        <time>2024-05-16T16:04:32.000Z</time>
      </trkpt>
      <trkpt lat="46.29596" lon="4.71302">
        <ele>399</ele>
        <time>2024-05-16T16:04:33.000Z</time>
      </trkpt>
      <trkpt lat="46.29607" lon="4.71315">
        <ele>398</ele>
        <time>2024-05-16T16:04:37.000Z</time>
      </trkpt>
      <trkpt lat="46.2962" lon="4.7135">
        <ele>394</ele>
        <time>2024-05-16T16:04:43.000Z</time>
      </trkpt>
      <trkpt lat="46.29652" lon="4.71411">
        <ele>387</ele>
        <time>2024-05-16T16:04:55.000Z</time>
      </trkpt>
      <trkpt lat="46.29661" lon="4.71448">
        <ele>384</ele>
        <time>2024-05-16T16:05:02.000Z</time>
      </trkpt>
      <trkpt lat="46.29681" lon="4.71494">
        <ele>382</ele>
        <time>2024-05-16T16:05:10.000Z</time>
      </trkpt>
      <trkpt lat="46.29707" lon="4.71593">
        <ele>384</ele>
        <time>2024-05-16T16:05:28.000Z</time>
      </trkpt>
      <trkpt lat="46.29711" lon="4.71615">
        <ele>386</ele>
        <time>2024-05-16T16:05:31.000Z</time>
      </trkpt>
      <trkpt lat="46.29711" lon="4.71626">
        <ele>386</ele>
        <time>2024-05-16T16:05:33.000Z</time>
      </trkpt>
      <trkpt lat="46.29706" lon="4.7169">
        <ele>389</ele>
        <time>2024-05-16T16:05:43.000Z</time>
      </trkpt>
      <trkpt lat="46.29706" lon="4.71758">
        <ele>392</ele>
        <time>2024-05-16T16:05:54.000Z</time>
      </trkpt>
      <trkpt lat="46.29706" lon="4.71793">
        <ele>392</ele>
        <time>2024-05-16T16:06:00.000Z</time>
      </trkpt>
      <trkpt lat="46.29722" lon="4.71825">
        <ele>397</ele>
        <time>2024-05-16T16:06:06.000Z</time>
      </trkpt>
      <trkpt lat="46.29749" lon="4.71859">
        <ele>402</ele>
        <time>2024-05-16T16:06:15.000Z</time>
      </trkpt>
      <trkpt lat="46.29761" lon="4.71907">
        <ele>401</ele>
        <time>2024-05-16T16:06:23.000Z</time>
      </trkpt>
      <trkpt lat="46.2977" lon="4.71902">
        <ele>404</ele>
        <time>2024-05-16T16:06:25.000Z</time>
      </trkpt>
      <trkpt lat="46.29785" lon="4.719">
        <ele>408</ele>
        <time>2024-05-16T16:06:29.000Z</time>
      </trkpt>
      <trkpt lat="46.29797" lon="4.71893">
        <ele>413</ele>
        <time>2024-05-16T16:06:32.000Z</time>
      </trkpt>
    </trkseg>
  </trk>
</gpx>